« Back
NWS Peachtree City, Ga » Text Product » AHN Terminal Aerodrome Forecast


Printer-friendly Version
Current Version              Previous Versions:   1  2  3  4  5  6  7  8  9  

Terminal Aerodrome Forecast

581
FTUS42 KFFC 030335 AAA
TAFAHN
TAF AMD
KAHN 030335Z 0304/0324 00000KT P6SM FEW100 SCT200
     FM031500 VRB03KT P6SM SCT045 BKN200
     FM031900 32003KT P6SM BKN050 PROB30 0320/0324 -SHRA=

USA.gov is the U.S. government's official web portal to all federal, state and local government web resources and services.